Time;durP1;ratioP1;P1;durP2;ratioP2;P2;SDS_P1;SDS_P2;PMS_P1;PMS_P2;Temp;Humidity;BMP_temperature;BMP_pressure;BME280_temperature;BME280_humidity;BME280_pressure;Samples;Min_cycle;Max_cycle;Signal;HPM_P1;HPM_P2
2023/05/12 00:01:05;;;;;;;;;;;;;;;13.34;61.73;100150.09;5092115;28;19912;-37
2023/05/12 00:03:30;;;;;;;;;;;;;;;13.42;60.64;100156.03;5091606;28;19938;-37
2023/05/12 00:05:56;;;;;;;;;;;;;;;13.26;61.36;100151.94;5091792;28;19973;-37
2023/05/12 00:08:21;;;;;;;;;;;;;;;13.09;61.85;100158.78;5091932;28;19922;-37
2023/05/12 00:10:47;;;;;;;;;;;;;;;13.03;62.38;100160.44;5091983;28;19954;-37
2023/05/12 00:13:12;;;;;;;;;;;;;;;12.90;62.68;100153.28;5091962;28;19981;-36
2023/05/12 00:15:37;;;;;;;;;;;;;;;13.09;62.23;100156.94;5091733;28;20376;-36
2023/05/12 00:18:02;;;;;;;;;;;;;;;13.06;62.11;100156.53;5087143;28;19965;-37
2023/05/12 00:20:28;;;;;;;;;;;;;;;12.81;63.17;100156.38;5091780;28;19919;-36
2023/05/12 00:22:53;;;;;;;;;;;;;;;13.00;62.52;100152.84;5092095;28;19913;-38
2023/05/12 00:25:18;;;;;;;;;;;;;;;12.55;63.29;100154.56;5091644;28;20424;-36
2023/05/12 00:27:43;;;;;;;;;;;;;;;12.45;64.13;100158.47;5091416;28;19990;-37
2023/05/12 00:30:09;;;;;;;;;;;;;;;13.01;62.79;100153.69;5091777;28;19912;-37
2023/05/12 00:32:34;;;;;;;;;;;;;;;12.48;64.28;100158.03;5091524;28;20056;-37
2023/05/12 00:35:00;;;;;;;;;;;;;;;12.76;63.58;100148.19;5091598;28;19912;-37
2023/05/12 00:37:25;;;;;;;;;;;;;;;12.65;63.71;100155.78;5091325;28;20372;-36
2023/05/12 00:39:50;;;;;;;;;;;;;;;12.96;63.06;100153.47;5091625;28;19918;-37
2023/05/12 00:42:15;;;;;;;;;;;;;;;12.65;64.25;100153.09;5091830;28;19946;-37
2023/05/12 00:44:41;;;;;;;;;;;;;;;12.78;63.58;100157.63;5091163;28;20327;-37
2023/05/12 00:47:07;;;;;;;;;;;;;;;12.49;64.33;100159.69;5091410;28;19934;-37
2023/05/12 00:49:32;;;;;;;;;;;;;;;12.75;63.95;100159.88;5091439;28;19912;-37
2023/05/12 00:51:58;;;;;;;;;;;;;;;12.64;63.76;100164.00;5091400;28;19912;-37
2023/05/12 00:54:24;;;;;;;;;;;;;;;12.13;65.08;100163.56;5091457;28;19912;-37
2023/05/12 00:56:50;;;;;;;;;;;;;;;12.67;64.22;100167.06;5091494;28;19920;-36
2023/05/12 00:59:15;;;;;;;;;;;;;;;12.88;63.46;100165.19;5091517;28;19916;-37
2023/05/12 01:01:41;;;;;;;;;;;;;;;12.97;62.94;100173.84;5091394;28;19919;-37
2023/05/12 01:04:06;;;;;;;;;;;;;;;13.20;62.65;100174.16;5091110;28;20000;-36
2023/05/12 01:06:37;;;;;;;;;;;;;;;13.25;61.84;100173.53;5091158;28;19976;-36
2023/05/12 01:09:03;;;;;;;;;;;;;;;13.08;62.73;100167.84;5091069;28;20363;-36
2023/05/12 01:11:28;;;;;;;;;;;;;;;12.96;62.60;100162.31;5091142;28;19912;-37
2023/05/12 01:13:53;;;;;;;;;;;;;;;12.86;62.74;100144.03;5090858;28;19912;-37
2023/05/12 01:16:21;;;;;;;;;;;;;;;12.95;62.79;100167.88;5090994;28;19977;-37
2023/05/12 01:18:50;;;;;;;;;;;;;;;13.18;61.86;100168.22;5090741;28;19965;-36
2023/05/12 01:21:15;;;;;;;;;;;;;;;12.98;62.74;100159.44;5090976;28;19912;-37
2023/05/12 01:23:43;;;;;;;;;;;;;;;13.04;62.66;100166.59;5090506;28;19923;-36
2023/05/12 01:26:09;;;;;;;;;;;;;;;13.27;62.14;100168.81;5090768;28;20360;-36
2023/05/12 01:28:35;;;;;;;;;;;;;;;12.78;63.22;100170.97;5090960;28;19948;-36
2023/05/12 01:31:00;;;;;;;;;;;;;;;12.70;63.00;100166.66;5090940;28;19922;-37
2023/05/12 01:33:26;;;;;;;;;;;;;;;12.61;63.87;100173.25;5090947;28;20011;-37
2023/05/12 01:35:51;;;;;;;;;;;;;;;12.56;63.59;100156.19;5090863;28;19912;-36
2023/05/12 01:38:16;;;;;;;;;;;;;;;12.76;63.54;100162.34;5090918;28;19913;-37
2023/05/12 01:40:41;;;;;;;;;;;;;;;12.76;63.52;100156.19;5090724;28;19951;-37
2023/05/12 01:43:07;;;;;;;;;;;;;;;12.46;64.51;100161.97;5090951;28;19965;-37
2023/05/12 01:45:32;;;;;;;;;;;;;;;12.68;63.61;100159.91;5090788;28;20003;-37
2023/05/12 01:47:57;;;;;;;;;;;;;;;12.84;63.24;100164.78;5090531;28;19913;-37
2023/05/12 01:50:23;;;;;;;;;;;;;;;12.80;63.10;100168.09;5090768;28;19916;-37
2023/05/12 01:52:48;;;;;;;;;;;;;;;12.84;62.50;100162.13;5090354;28;19912;-37
2023/05/12 01:55:13;;;;;;;;;;;;;;;12.78;62.98;100162.97;5090580;28;19988;-37
2023/05/12 01:57:38;;;;;;;;;;;;;;;12.16;65.21;100162.34;5093205;28;20002;-37
2023/05/12 02:00:04;;;;;;;;;;;;;;;12.37;64.17;100161.31;5094313;28;20319;-37
2023/05/12 02:02:30;;;;;;;;;;;;;;;12.30;64.17;100164.00;5094167;28;20053;-37
2023/05/12 02:04:55;;;;;;;;;;;;;;;12.79;63.46;100161.91;5093872;28;20387;-37
2023/05/12 02:07:21;;;;;;;;;;;;;;;12.62;63.50;100153.53;5093879;28;19912;-37
2023/05/12 02:09:47;;;;;;;;;;;;;;;12.56;64.30;100148.19;5094154;28;20023;-37
2023/05/12 02:12:12;;;;;;;;;;;;;;;12.64;63.84;100153.31;5094171;28;19916;-36
2023/05/12 02:14:37;;;;;;;;;;;;;;;12.50;64.27;100156.00;5094177;28;20390;-36
2023/05/12 02:17:03;;;;;;;;;;;;;;;12.41;64.15;100156.41;5094152;28;19986;-36
2023/05/12 02:19:28;;;;;;;;;;;;;;;12.61;63.72;100151.06;5093992;28;19912;-37
2023/05/12 02:21:54;;;;;;;;;;;;;;;12.60;63.55;100149.41;5093899;28;19935;-36
2023/05/12 02:24:20;;;;;;;;;;;;;;;12.48;64.44;100155.38;5093540;28;20376;-36
2023/05/12 02:26:45;;;;;;;;;;;;;;;12.80;62.89;100149.41;5093508;28;19924;-36
2023/05/12 02:29:10;;;;;;;;;;;;;;;13.02;62.53;100155.31;5093797;28;19923;-36
2023/05/12 02:31:36;;;;;;;;;;;;;;;12.61;63.27;100153.75;5093817;28;20319;-36
2023/05/12 02:34:02;;;;;;;;;;;;;;;12.63;63.18;100154.34;5093447;28;19912;-36
2023/05/12 02:36:27;;;;;;;;;;;;;;;12.83;62.66;100157.81;5093857;28;19912;-37
2023/05/12 02:38:53;;;;;;;;;;;;;;;12.54;63.22;100152.91;5093661;28;19916;-36
2023/05/12 02:41:18;;;;;;;;;;;;;;;12.47;63.69;100148.41;5093841;28;19924;-37
2023/05/12 02:43:43;;;;;;;;;;;;;;;12.42;63.43;100152.72;5092976;28;20384;-37
2023/05/12 02:46:08;;;;;;;;;;;;;;;12.65;63.30;100152.28;5093190;28;19919;-36
2023/05/12 02:48:34;;;;;;;;;;;;;;;12.82;62.65;100150.00;5093589;28;20007;-37
2023/05/12 02:50:59;;;;;;;;;;;;;;;12.84;62.55;100151.44;5093574;28;19984;-37
2023/05/12 02:53:25;;;;;;;;;;;;;;;12.79;62.90;100155.75;5093247;28;19912;-37
2023/05/12 02:55:51;;;;;;;;;;;;;;;12.97;62.04;100149.78;5093077;28;19919;-37
2023/05/12 02:58:17;;;;;;;;;;;;;;;13.03;62.51;100156.97;5093238;28;19912;-37
2023/05/12 03:00:42;;;;;;;;;;;;;;;12.88;62.73;100159.88;5093127;28;19965;-37
2023/05/12 03:03:07;;;;;;;;;;;;;;;13.04;62.20;100164.78;5092796;28;20381;-42
2023/05/12 03:05:32;;;;;;;;;;;;;;;13.27;61.41;100164.28;5092837;28;20050;-41
2023/05/12 03:07:58;;;;;;;;;;;;;;;13.37;61.04;100163.88;5092507;28;19973;-42
2023/05/12 03:10:24;;;;;;;;;;;;;;;13.14;61.37;100174.22;5092891;28;19994;-42
2023/05/12 03:12:49;;;;;;;;;;;;;;;12.83;62.27;100171.19;5092614;28;20417;-43
2023/05/12 03:15:14;;;;;;;;;;;;;;;12.94;62.40;100175.06;5092724;28;19919;-41
2023/05/12 03:17:40;;;;;;;;;;;;;;;12.88;62.11;100182.03;5092687;28;19915;-41
2023/05/12 03:20:05;;;;;;;;;;;;;;;12.78;61.84;100176.31;5093129;28;19987;-41
2023/05/12 03:22:31;;;;;;;;;;;;;;;12.91;62.46;100178.97;5092498;28;20248;-41
2023/05/12 03:24:56;;;;;;;;;;;;;;;13.11;61.95;100175.44;5091159;28;20627;-41
2023/05/12 03:27:21;;;;;;;;;;;;;;;13.03;61.25;100183.69;5092166;28;19924;-41
2023/05/12 03:29:47;;;;;;;;;;;;;;;13.18;60.95;100181.59;5092502;28;19977;-41
2023/05/12 03:32:12;;;;;;;;;;;;;;;13.09;61.18;100186.31;5092264;28;19968;-42
2023/05/12 03:34:37;;;;;;;;;;;;;;;13.14;61.20;100185.72;5092425;28;19919;-41
2023/05/12 03:37:03;;;;;;;;;;;;;;;13.04;61.40;100188.81;5092352;28;19919;-41
2023/05/12 03:39:28;;;;;;;;;;;;;;;13.07;61.55;100191.06;5092235;28;20336;-41
2023/05/12 03:41:53;;;;;;;;;;;;;;;13.17;61.32;100192.47;5091918;28;19935;-41
2023/05/12 03:44:19;;;;;;;;;;;;;;;13.30;60.72;100193.28;5091831;28;20030;-41
2023/05/12 03:46:44;;;;;;;;;;;;;;;13.15;60.76;100192.69;5091951;28;19919;-41
2023/05/12 03:49:09;;;;;;;;;;;;;;;13.36;60.62;100198.81;5091900;28;19912;-41
2023/05/12 03:51:34;;;;;;;;;;;;;;;13.43;60.72;100204.97;5092118;28;19999;-42
2023/05/12 03:54:00;;;;;;;;;;;;;;;13.45;60.15;100209.06;5091882;28;19915;-42
2023/05/12 03:56:26;;;;;;;;;;;;;;;13.38;60.30;100207.44;5091789;28;19951;-42
2023/05/12 03:58:51;;;;;;;;;;;;;;;13.00;61.72;100210.78;5091210;28;19917;-41
2023/05/12 04:01:17;;;;;;;;;;;;;;;13.20;61.16;100208.91;5091501;28;19935;-41
2023/05/12 04:03:42;;;;;;;;;;;;;;;13.45;60.29;100214.41;5091416;28;19917;-41
2023/05/12 04:06:07;;;;;;;;;;;;;;;13.20;61.24;100214.25;5091804;28;19959;-41
2023/05/12 04:08:33;;;;;;;;;;;;;;;13.17;61.31;100219.19;5091247;28;19927;-42
2023/05/12 04:10:59;;;;;;;;;;;;;;;13.26;61.09;100216.09;5090588;28;19924;-41
2023/05/12 04:13:25;;;;;;;;;;;;;;;13.57;59.92;100217.25;5102822;28;19975;-40
2023/05/12 04:15:53;;;;;;;;;;;;;;;13.59;59.35;100209.84;5112264;28;19916;-41
2023/05/12 04:18:18;;;;;;;;;;;;;;;13.61;59.80;100212.31;5111768;28;19918;-41
2023/05/12 04:20:44;;;;;;;;;;;;;;;13.67;60.01;100216.81;5094993;28;20078;-41
2023/05/12 04:23:09;;;;;;;;;;;;;;;13.57;59.27;100211.09;5091149;28;19912;-41
2023/05/12 04:25:39;;;;;;;;;;;;;;;13.64;59.84;100206.53;5091270;28;19920;-42
2023/05/12 04:28:04;;;;;;;;;;;;;;;13.46;60.60;100212.56;5090397;28;20028;-41
2023/05/12 04:30:29;;;;;;;;;;;;;;;13.01;62.12;100215.94;5090141;28;19916;-42
2023/05/12 04:32:55;;;;;;;;;;;;;;;13.09;61.75;100210.38;5090648;28;19915;-41
2023/05/12 04:35:20;;;;;;;;;;;;;;;13.57;60.66;100205.75;5090640;28;19916;-43
2023/05/12 04:37:45;;;;;;;;;;;;;;;13.72;60.00;100198.28;5090325;28;20088;-41
2023/05/12 04:40:11;;;;;;;;;;;;;;;13.34;60.66;100207.03;5090068;28;19998;-40
2023/05/12 04:42:36;;;;;;;;;;;;;;;13.59;60.20;100204.50;5090281;28;20319;-41
2023/05/12 04:45:01;;;;;;;;;;;;;;;13.34;61.26;100204.38;5090303;28;20336;-41
2023/05/12 04:47:27;;;;;;;;;;;;;;;13.15;61.18;100165.16;5090489;28;19919;-41
2023/05/12 04:49:52;;;;;;;;;;;;;;;13.72;59.39;100200.94;5090682;28;19927;-42
2023/05/12 04:52:17;;;;;;;;;;;;;;;13.37;60.46;100201.28;5090367;28;19915;-41
2023/05/12 04:54:43;;;;;;;;;;;;;;;13.09;61.72;100201.53;5088972;28;19962;-42
2023/05/12 04:57:08;;;;;;;;;;;;;;;13.10;61.76;100201.34;5089644;28;19912;-42
2023/05/12 04:59:34;;;;;;;;;;;;;;;13.49;60.68;100204.94;5089273;28;19922;-41
2023/05/12 05:02:00;;;;;;;;;;;;;;;13.43;60.36;100210.31;5095568;28;19980;-42
2023/05/12 05:04:25;;;;;;;;;;;;;;;13.59;60.38;100207.16;5105824;28;19919;-42
2023/05/12 05:06:50;;;;;;;;;;;;;;;13.87;58.86;100212.19;5109584;28;20390;-42
2023/05/12 05:09:16;;;;;;;;;;;;;;;14.20;58.64;100208.53;5093049;28;19993;-42
2023/05/12 05:11:41;;;;;;;;;;;;;;;14.16;59.23;100209.16;5098300;28;19916;-46
2023/05/12 05:14:06;;;;;;;;;;;;;;;14.10;58.55;100215.38;5089593;28;19999;-42
2023/05/12 05:16:32;;;;;;;;;;;;;;;14.27;58.14;100203.91;5090032;28;19919;-42
2023/05/12 05:18:57;;;;;;;;;;;;;;;14.17;58.96;100210.81;5096336;28;20288;-42
2023/05/12 05:21:22;;;;;;;;;;;;;;;13.95;59.58;100211.13;5089957;28;19912;-41
2023/05/12 05:23:47;;;;;;;;;;;;;;;14.41;58.02;100211.84;5089386;28;19939;-42
2023/05/12 05:26:13;;;;;;;;;;;;;;;14.43;58.14;100215.13;5089458;28;19924;-42
2023/05/12 05:28:38;;;;;;;;;;;;;;;14.28;58.58;100218.16;5089589;28;19964;-42
2023/05/12 05:31:04;;;;;;;;;;;;;;;14.59;57.62;100225.34;5106412;28;19955;-41
2023/05/12 05:33:30;;;;;;;;;;;;;;;14.40;57.90;100224.44;5112526;28;19912;-41
2023/05/12 05:35:55;;;;;;;;;;;;;;;14.30;58.82;100231.28;5113417;28;19916;-41
2023/05/12 05:38:21;;;;;;;;;;;;;;;14.13;59.02;100222.97;5113420;28;19918;-41
2023/05/12 05:40:46;;;;;;;;;;;;;;;14.41;58.18;100218.06;5113629;28;19912;-41
2023/05/12 05:43:11;;;;;;;;;;;;;;;14.15;59.30;100228.94;5113310;27;19915;-41
2023/05/12 05:45:36;;;;;;;;;;;;;;;14.15;59.27;100224.41;5088897;28;20392;-36
2023/05/12 05:48:02;;;;;;;;;;;;;;;13.93;59.68;100220.41;5095837;28;20394;-36
2023/05/12 05:50:27;;;;;;;;;;;;;;;14.27;58.50;100219.97;5093507;28;20006;-34
2023/05/12 05:52:55;;;;;;;;;;;;;;;14.07;59.52;100222.78;5092595;28;20395;-36
2023/05/12 05:55:21;;;;;;;;;;;;;;;13.79;59.87;100214.31;5093164;28;19912;-36
2023/05/12 05:57:46;;;;;;;;;;;;;;;14.22;58.53;100211.81;5093083;28;19918;-36
2023/05/12 06:00:13;;;;;;;;;;;;;;;14.28;59.02;100218.16;5093123;28;19912;-37
2023/05/12 06:02:38;;;;;;;;;;;;;;;14.75;56.96;100220.50;5092677;28;19916;-36
2023/05/12 06:05:04;;;;;;;;;;;;;;;14.95;56.88;100226.50;5092341;28;19927;-42
2023/05/12 06:07:29;;;;;;;;;;;;;;;15.58;55.08;100225.41;5091571;28;20034;-40
2023/05/12 06:09:54;;;;;;;;;;;;;;;15.45;55.29;100226.38;5091862;28;19927;-41
2023/05/12 06:12:20;;;;;;;;;;;;;;;16.03;53.84;100222.41;5092192;28;20006;-42
2023/05/12 06:14:45;;;;;;;;;;;;;;;15.63;54.50;100240.81;5092198;28;19951;-42
2023/05/12 06:17:11;;;;;;;;;;;;;;;15.97;53.35;100238.59;5092284;28;19912;-42
2023/05/12 06:19:36;;;;;;;;;;;;;;;16.14;52.10;100231.53;5092117;28;20046;-42
2023/05/12 06:22:01;;;;;;;;;;;;;;;16.36;52.31;100225.66;5094020;28;20056;-42
2023/05/12 06:24:27;;;;;;;;;;;;;;;17.33;50.43;100229.84;5096448;28;19928;-44
2023/05/12 06:26:52;;;;;;;;;;;;;;;17.95;49.13;100235.44;5092565;28;19920;-41
2023/05/12 06:29:18;;;;;;;;;;;;;;;18.39;47.19;100247.50;5092556;28;20243;-42
2023/05/12 06:31:43;;;;;;;;;;;;;;;18.24;47.07;100242.66;5088718;28;19924;-41
2023/05/12 06:34:09;;;;;;;;;;;;;;;18.29;47.11;100248.97;5092134;28;19913;-37
2023/05/12 06:36:34;;;;;;;;;;;;;;;18.09;47.25;100233.25;5090864;28;19916;-37
2023/05/12 06:39:00;;;;;;;;;;;;;;;18.61;46.84;100243.06;5092033;28;20023;-37
2023/05/12 06:41:25;;;;;;;;;;;;;;;19.20;45.86;100239.13;5091694;28;19935;-37
2023/05/12 06:43:51;;;;;;;;;;;;;;;20.14;43.56;100237.31;5090441;28;19946;-37
2023/05/12 06:46:17;;;;;;;;;;;;;;;20.27;42.64;100226.09;5091813;28;19916;-37
2023/05/12 06:48:42;;;;;;;;;;;;;;;18.91;45.16;100231.97;5091890;28;19912;-36
2023/05/12 06:51:08;;;;;;;;;;;;;;;18.45;45.82;100236.59;5091969;28;20404;-36
2023/05/12 06:53:36;;;;;;;;;;;;;;;18.40;46.74;100239.19;5091860;28;19981;-37
2023/05/12 06:56:01;;;;;;;;;;;;;;;17.55;47.48;100236.22;5092003;28;19916;-37
2023/05/12 06:58:27;;;;;;;;;;;;;;;18.09;47.05;100229.75;5092235;28;20372;-36
2023/05/12 07:00:52;;;;;;;;;;;;;;;18.61;45.72;100232.28;5092162;28;19912;-37
2023/05/12 07:03:17;;;;;;;;;;;;;;;18.96;44.07;100236.59;5091628;28;20256;-37
2023/05/12 07:05:43;;;;;;;;;;;;;;;18.16;46.52;100230.41;5091741;28;19980;-37
2023/05/12 07:08:08;;;;;;;;;;;;;;;17.74;46.58;100201.91;5091425;28;20402;-36
2023/05/12 07:10:34;;;;;;;;;;;;;;;18.24;47.30;100221.97;5091623;28;19916;-37
2023/05/12 07:12:59;;;;;;;;;;;;;;;18.42;46.23;100228.19;5091536;28;19918;-37
2023/05/12 07:15:24;;;;;;;;;;;;;;;17.87;48.28;100230.41;5091446;28;19916;-36
2023/05/12 07:17:50;;;;;;;;;;;;;;;18.11;46.01;100228.44;5091381;28;19912;-37
2023/05/12 07:20:15;;;;;;;;;;;;;;;19.03;45.15;100222.97;5091435;28;19923;-35
2023/05/12 07:22:40;;;;;;;;;;;;;;;18.85;45.12;100232.13;5091246;28;19916;-37
2023/05/12 07:25:06;;;;;;;;;;;;;;;19.19;43.51;100230.22;5091070;28;19917;-37
2023/05/12 07:27:32;;;;;;;;;;;;;;;19.59;41.44;100214.78;5090726;28;20030;-37
2023/05/12 07:29:57;;;;;;;;;;;;;;;20.23;39.73;100224.97;5091131;28;19916;-36
2023/05/12 07:32:24;;;;;;;;;;;;;;;20.37;38.95;100230.75;5091263;28;19912;-37
2023/05/12 07:34:49;;;;;;;;;;;;;;;19.61;39.66;100232.38;5090826;28;19919;-36
2023/05/12 07:37:14;;;;;;;;;;;;;;;18.65;42.33;100229.91;5091014;28;19912;-36
2023/05/12 07:39:40;;;;;;;;;;;;;;;18.67;41.30;100236.66;5090734;28;19943;-36
2023/05/12 07:42:05;;;;;;;;;;;;;;;18.19;43.28;100234.50;5090398;28;19928;-36
2023/05/12 07:44:32;;;;;;;;;;;;;;;18.15;43.21;100235.00;5091494;28;19916;-36
2023/05/12 07:46:57;;;;;;;;;;;;;;;18.06;43.37;100228.34;5090299;28;20371;-38
2023/05/12 07:49:22;;;;;;;;;;;;;;;18.41;41.56;100229.22;5090762;28;19912;-36
2023/05/12 07:51:48;;;;;;;;;;;;;;;18.68;41.42;100224.03;5089630;28;19920;-37
2023/05/12 07:54:13;;;;;;;;;;;;;;;19.13;39.91;100221.25;5090141;28;19916;-41
2023/05/12 07:56:38;;;;;;;;;;;;;;;19.29;39.70;100221.44;5089754;28;19919;-41
2023/05/12 07:59:05;;;;;;;;;;;;;;;18.62;41.22;100216.91;5090283;28;19951;-41
2023/05/12 08:01:30;;;;;;;;;;;;;;;18.89;41.07;100222.50;5093196;28;19916;-36
2023/05/12 08:03:55;;;;;;;;;;;;;;;19.06;40.99;100225.19;5089894;28;20438;-41
2023/05/12 08:06:21;;;;;;;;;;;;;;;18.87;42.13;100220.03;5096193;28;20014;-41
2023/05/12 08:08:46;;;;;;;;;;;;;;;19.01;41.64;100215.13;5093390;28;19916;-41
2023/05/12 08:11:11;;;;;;;;;;;;;;;19.43;41.14;100217.28;5093388;28;20330;-41
2023/05/12 08:13:37;;;;;;;;;;;;;;;18.41;41.59;100213.06;5093746;28;19916;-41
2023/05/12 08:16:02;;;;;;;;;;;;;;;17.86;42.45;100227.97;5091050;28;19939;-42
2023/05/12 08:18:27;;;;;;;;;;;;;;;18.55;41.62;100223.28;5089721;28;19920;-41
2023/05/12 08:20:53;;;;;;;;;;;;;;;18.95;41.14;100222.31;5088845;28;19935;-41
2023/05/12 08:23:18;;;;;;;;;;;;;;;18.79;40.52;100228.53;5089377;28;20007;-41
2023/05/12 08:25:43;;;;;;;;;;;;;;;18.67;39.85;100225.88;5088796;28;19924;-41
2023/05/12 08:28:09;;;;;;;;;;;;;;;19.10;38.91;100224.41;5091094;28;19932;-48
2023/05/12 08:30:35;;;;;;;;;;;;;;;20.00;37.94;100223.38;5090727;28;20005;-41
2023/05/12 08:33:01;;;;;;;;;;;;;;;20.81;37.29;100217.91;5089984;28;19919;-42
2023/05/12 08:35:26;;;;;;;;;;;;;;;21.30;35.70;100219.53;5091031;28;19912;-40
2023/05/12 08:37:52;;;;;;;;;;;;;;;20.82;36.54;100226.84;5090583;28;19918;-40
2023/05/12 08:40:19;;;;;;;;;;;;;;;20.81;37.15;100217.91;5090115;28;19919;-40
2023/05/12 08:42:54;;;;;;;;;;;;;;;20.20;38.27;100214.66;5093770;28;20011;-40
2023/05/12 08:45:21;;;;;;;;;;;;;;;20.23;38.29;100219.56;5091860;28;19919;-41
2023/05/12 08:47:48;;;;;;;;;;;;;;;20.20;38.02;100218.19;5089328;28;19918;-40
2023/05/12 08:50:16;;;;;;;;;;;;;;;20.39;37.72;100210.53;5089362;28;20384;-41
2023/05/12 08:52:41;;;;;;;;;;;;;;;21.11;37.37;100208.34;5089768;28;20006;-41
2023/05/12 08:55:08;;;;;;;;;;;;;;;21.23;36.28;100210.88;5090533;28;19967;-40
2023/05/12 08:57:33;;;;;;;;;;;;;;;20.37;35.70;100214.53;5090736;28;19948;-41
2023/05/12 09:00:01;;;;;;;;;;;;;;;20.65;35.99;100210.75;5090558;28;20430;-40
2023/05/12 09:02:27;;;;;;;;;;;;;;;21.06;34.84;100211.84;5090738;28;19938;-41
2023/05/12 09:04:53;;;;;;;;;;;;;;;20.82;34.49;100219.53;5090454;28;19981;-40
2023/05/12 09:07:21;;;;;;;;;;;;;;;20.65;35.44;100216.97;5092961;28;19919;-40
2023/05/12 09:09:47;;;;;;;;;;;;;;;20.31;35.72;100210.97;5094784;28;19911;-40
2023/05/12 09:12:15;;;;;;;;;;;;;;;20.21;36.24;100208.19;5094532;28;19998;-40
2023/05/12 09:14:43;;;;;;;;;;;;;;;19.70;36.59;100205.75;5094665;28;19944;-41
2023/05/12 09:17:11;;;;;;;;;;;;;;;20.37;36.37;100198.31;5094499;28;19912;-41
2023/05/12 09:19:36;;;;;;;;;;;;;;;21.24;35.21;100197.06;5094722;28;19927;-41
2023/05/12 09:22:01;;;;;;;;;;;;;;;22.03;33.95;100202.50;5094140;28;20300;-41
2023/05/12 09:24:37;;;;;;;;;;;;;;;22.25;32.60;100194.16;5094431;28;19969;-40
2023/05/12 09:27:03;;;;;;;;;;;;;;;21.53;33.47;100196.66;5094213;28;20032;-40
2023/05/12 09:29:28;;;;;;;;;;;;;;;19.58;35.46;100197.78;5094447;28;20384;-40
2023/05/12 09:31:55;;;;;;;;;;;;;;;20.41;35.21;100197.56;5094471;28;19912;-41
2023/05/12 09:34:31;;;;;;;;;;;;;;;20.07;35.20;100194.28;5094396;28;19948;-40
2023/05/12 09:37:05;;;;;;;;;;;;;;;18.39;38.42;100202.56;5094311;28;19912;-41
2023/05/12 09:39:31;;;;;;;;;;;;;;;19.13;37.67;100196.97;5093792;28;19919;-41
2023/05/12 09:41:56;;;;;;;;;;;;;;;19.00;36.93;100175.75;5093837;28;19912;-41
2023/05/12 09:44:22;;;;;;;;;;;;;;;18.81;38.10;100195.94;5101587;28;20310;-40
2023/05/12 09:46:47;;;;;;;;;;;;;;;19.23;37.69;100204.38;5093792;28;20368;-42
2023/05/12 09:49:19;;;;;;;;;;;;;;;19.21;37.51;100201.09;5093841;28;19912;-41
2023/05/12 09:51:45;;;;;;;;;;;;;;;20.24;36.43;100184.19;5094035;28;19920;-41
2023/05/12 09:54:10;;;;;;;;;;;;;;;20.46;34.95;100194.09;5093738;28;19912;-41
2023/05/12 09:56:36;;;;;;;;;;;;;;;19.90;35.63;100187.09;5093665;28;20308;-41
2023/05/12 09:59:02;;;;;;;;;;;;;;;19.99;35.63;100181.22;5093627;28;19919;-41
2023/05/12 10:01:28;;;;;;;;;;;;;;;19.95;36.31;100182.81;5093487;28;19919;-41
2023/05/12 10:03:55;;;;;;;;;;;;;;;19.57;35.23;100187.22;5093832;28;20299;-40
2023/05/12 10:06:30;;;;;;;;;;;;;;;19.83;35.28;100172.97;5092177;28;19912;-40
2023/05/12 10:09:03;;;;;;;;;;;;;;;20.01;34.51;100182.63;5093446;28;19912;-41
2023/05/12 10:11:28;;;;;;;;;;;;;;;20.48;33.74;100184.63;5093206;28;19985;-41
2023/05/12 10:13:54;;;;;;;;;;;;;;;19.69;34.38;100187.94;5091493;28;20372;-41
2023/05/12 10:16:20;;;;;;;;;;;;;;;20.20;34.40;100188.47;5089462;28;19985;-41
2023/05/12 10:18:46;;;;;;;;;;;;;;;20.03;34.28;100171.53;5087443;28;19995;-41
2023/05/12 10:21:12;;;;;;;;;;;;;;;19.96;34.26;100176.34;5092352;28;20018;-41
2023/05/12 10:23:40;;;;;;;;;;;;;;;18.92;35.36;100186.94;5093871;28;19989;-41
2023/05/12 10:26:06;;;;;;;;;;;;;;;19.18;51.04;100173.81;5087647;28;19923;-42
2023/05/12 10:28:31;;;;;;;;;;;;;;;18.66;36.72;100177.66;5087991;28;20018;-41
2023/05/12 10:30:57;;;;;;;;;;;;;;;19.17;36.31;100181.06;5088648;28;20011;-41
2023/05/12 10:33:22;;;;;;;;;;;;;;;19.12;36.74;100168.34;5086075;28;20382;-41
2023/05/12 10:35:49;;;;;;;;;;;;;;;19.61;35.44;100167.59;5092845;28;19912;-40
2023/05/12 10:38:20;;;;;;;;;;;;;;;19.73;35.32;100173.69;5092661;28;20372;-41
2023/05/12 10:40:59;;;;;;;;;;;;;;;19.45;36.39;100171.97;5092708;28;19919;-41
2023/05/12 10:43:26;;;;;;;;;;;;;;;19.54;34.50;100165.06;5101662;28;19926;-40
2023/05/12 10:46:10;;;;;;;;;;;;;;;20.12;34.17;100159.19;5088023;28;20011;-41
2023/05/12 10:48:37;;;;;;;;;;;;;;;19.97;35.60;100156.38;5072679;28;20037;-41
2023/05/12 10:51:06;;;;;;;;;;;;;;;20.44;34.87;100153.78;5072388;28;19970;-41
2023/05/12 10:53:34;;;;;;;;;;;;;;;20.82;33.72;100145.69;5072332;28;20424;-41
2023/05/12 10:56:03;;;;;;;;;;;;;;;20.13;34.50;100165.44;5072818;28;19916;-41
2023/05/12 10:58:28;;;;;;;;;;;;;;;19.21;35.76;100157.94;5072427;28;19912;-41
2023/05/12 11:00:54;;;;;;;;;;;;;;;19.33;35.12;100110.06;5075506;28;19919;-41
2023/05/12 11:03:23;;;;;;;;;;;;;;;19.65;35.67;100166.00;5092788;28;19919;-41
2023/05/12 11:06:18;;;;;;;;;;;;;;;18.57;38.27;100161.06;5092657;28;19994;-41
2023/05/12 11:08:44;;;;;;;;;;;;;;;18.48;37.69;100157.13;5087203;28;20015;-41
2023/05/12 11:11:09;;;;;;;;;;;;;;;19.73;36.02;100132.38;5092699;28;20022;-36
2023/05/12 11:13:35;;;;;;;;;;;;;;;20.70;35.32;100138.59;5092631;28;20336;-35
2023/05/12 11:16:00;;;;;;;;;;;;;;;20.20;34.96;100156.06;5092664;28;19994;-35
2023/05/12 11:18:25;;;;;;;;;;;;;;;19.88;35.62;100151.44;5092467;28;20340;-35
2023/05/12 11:20:50;;;;;;;;;;;;;;;20.83;34.67;100147.34;5092057;28;19969;-36
2023/05/12 11:23:23;;;;;;;;;;;;;;;21.51;33.81;100139.25;5092234;28;19965;-36
2023/05/12 11:25:49;;;;;;;;;;;;;;;20.25;33.47;100123.66;5092284;28;20019;-36
2023/05/12 11:28:14;;;;;;;;;;;;;;;19.75;34.94;100141.03;5092235;28;20011;-36
2023/05/12 11:30:47;;;;;;;;;;;;;;;20.90;34.90;100139.78;5091591;28;19912;-36
2023/05/12 11:33:12;;;;;;;;;;;;;;;21.07;33.61;100147.72;5092591;28;19913;-35
2023/05/12 11:35:37;;;;;;;;;;;;;;;20.96;33.66;100140.63;5092148;28;20445;-35
2023/05/12 11:38:13;;;;;;;;;;;;;;;21.07;32.74;100137.72;5092494;28;19916;-35
2023/05/12 11:40:39;;;;;;;;;;;;;;;20.99;32.96;100134.72;5090708;28;19920;-36
2023/05/12 11:43:08;;;;;;;;;;;;;;;21.10;33.84;100136.38;5084511;28;19920;-40
2023/05/12 11:45:33;;;;;;;;;;;;;;;20.46;33.69;100138.13;5090171;28;20360;-40
2023/05/12 11:48:10;;;;;;;;;;;;;;;19.19;35.88;100134.97;5089977;28;20015;-40
2023/05/12 11:50:39;;;;;;;;;;;;;;;19.96;35.29;100123.16;5091379;28;19912;-41
2023/05/12 11:53:08;;;;;;;;;;;;;;;20.14;34.83;100131.94;5084726;28;19912;-40
2023/05/12 11:55:34;;;;;;;;;;;;;;;20.50;33.96;100136.56;5089346;28;20008;-40
2023/05/12 11:58:00;;;;;;;;;;;;;;;19.42;35.62;100128.50;5090321;28;20003;-40
2023/05/12 12:00:31;;;;;;;;;;;;;;;18.86;36.66;100139.41;5087926;28;19916;-41
2023/05/12 12:03:06;;;;;;;;;;;;;;;19.31;35.83;100122.97;5091759;28;19912;-41
2023/05/12 12:05:32;;;;;;;;;;;;;;;19.60;35.37;100111.16;5091773;28;19916;-41
2023/05/12 12:08:23;;;;;;;;;;;;;;;20.22;34.99;100116.06;5091578;28;20380;-40
2023/05/12 12:10:48;;;;;;;;;;;;;;;21.29;32.89;100112.38;5089402;28;19915;-41
2023/05/12 12:13:21;;;;;;;;;;;;;;;21.35;32.26;100111.31;5090258;28;19923;-41
2023/05/12 12:15:46;;;;;;;;;;;;;;;20.49;33.95;100123.31;5090092;28;20354;-39
2023/05/12 12:18:12;;;;;;;;;;;;;;;20.92;33.45;100128.72;5089872;28;20400;-40
2023/05/12 12:20:37;;;;;;;;;;;;;;;21.06;33.37;100110.94;5089062;28;19912;-40
2023/05/12 12:23:03;;;;;;;;;;;;;;;21.03;34.31;100112.25;5089372;28;19912;-40
2023/05/12 12:25:28;;;;;;;;;;;;;;;21.21;33.70;100112.88;5088878;28;19977;-40
2023/05/12 12:27:53;;;;;;;;;;;;;;;21.03;32.47;100116.88;5089456;28;19935;-40
2023/05/12 12:30:19;;;;;;;;;;;;;;;20.12;34.26;100097.06;5089024;28;19916;-41